Time;durP1;ratioP1;P1;durP2;ratioP2;P2;SDS_P1;SDS_P2;PMS_P1;PMS_P2;Temp;Humidity;BMP_temperature;BMP_pressure;BME280_temperature;BME280_humidity;BME280_pressure;Samples;Min_cycle;Max_cycle;Signal;HPM_P1;HPM_P2
2022/11/02 00:02:18;;;;;;;1.55;1.00;;;18.40;59.30;;;;;;5046680;28;45399;-72
2022/11/02 00:04:45;;;;;;;1.00;0.95;;;18.40;59.20;;;;;;5046997;28;45424;-72
2022/11/02 00:07:12;;;;;;;1.20;0.65;;;18.40;59.20;;;;;;5046054;28;45495;-72
2022/11/02 00:09:39;;;;;;;2.05;0.80;;;18.40;59.30;;;;;;5046527;28;45200;-73
2022/11/02 00:12:06;;;;;;;1.83;1.10;;;18.40;59.30;;;;;;5046658;28;45314;-72
2022/11/02 00:14:34;;;;;;;1.23;0.90;;;18.40;59.30;;;;;;5046764;28;45397;-73
2022/11/02 00:17:01;;;;;;;1.23;1.08;;;18.40;59.30;;;;;;5046279;28;46578;-72
2022/11/02 00:19:29;;;;;;;0.80;0.80;;;18.30;59.90;;;;;;5045891;28;45271;-74
2022/11/02 00:21:57;;;;;;;1.27;0.98;;;18.30;59.30;;;;;;5045802;28;45224;-74
2022/11/02 00:24:24;;;;;;;0.88;0.85;;;18.30;59.30;;;;;;5046546;28;45317;-72
2022/11/02 00:26:51;;;;;;;3.13;0.93;;;18.30;59.30;;;;;;5046119;28;45373;-72
2022/11/02 00:29:19;;;;;;;1.27;0.93;;;18.30;59.30;;;;;;5046303;28;45205;-72
2022/11/02 00:31:46;;;;;;;1.48;0.88;;;18.30;59.40;;;;;;5046211;28;45324;-72
2022/11/02 00:34:13;;;;;;;1.45;0.80;;;18.30;59.40;;;;;;5046365;28;45293;-72
2022/11/02 00:36:41;;;;;;;1.65;0.85;;;18.30;59.40;;;;;;5045954;28;45323;-72
2022/11/02 00:39:08;;;;;;;1.52;1.00;;;18.30;59.30;;;;;;5046196;28;45198;-72
2022/11/02 00:41:35;;;;;;;1.40;0.88;;;18.30;59.30;;;;;;5046280;28;45197;-72
2022/11/02 00:44:02;;;;;;;1.30;1.00;;;18.30;59.30;;;;;;5046452;28;45500;-72
2022/11/02 00:46:29;;;;;;;2.53;1.10;;;18.30;59.40;;;;;;5045980;28;46484;-72
2022/11/02 00:48:56;;;;;;;2.63;0.88;;;18.30;59.30;;;;;;5045884;28;45289;-72
2022/11/02 00:51:23;;;;;;;1.88;0.88;;;18.20;59.90;;;;;;5047578;28;45204;-72
2022/11/02 00:53:51;;;;;;;1.60;0.90;;;18.20;59.40;;;;;;5049871;28;45192;-72
2022/11/02 00:56:18;;;;;;;1.75;0.90;;;18.20;59.30;;;;;;5049392;28;45320;-72
2022/11/02 00:58:45;;;;;;;0.90;0.77;;;18.20;59.40;;;;;;5049402;28;45396;-72
2022/11/02 01:01:11;;;;;;;1.33;1.00;;;18.20;59.40;;;;;;5049486;28;45206;-72
2022/11/02 01:03:38;;;;;;;1.50;0.70;;;18.20;59.40;;;;;;5049335;28;45195;-72
2022/11/02 01:06:09;;;;;;;1.92;0.98;;;18.20;59.40;;;;;;5048352;28;45212;-72
2022/11/02 01:08:36;;;;;;;2.13;0.85;;;18.10;59.40;;;;;;5048800;28;45226;-72
2022/11/02 01:11:12;;;;;;;1.48;0.90;;;18.20;59.40;;;;;;5049261;28;45183;-72
2022/11/02 01:13:39;;;;;;;0.73;0.73;;;18.20;59.30;;;;;;5049430;28;45324;-72
2022/11/02 01:16:06;;;;;;;1.77;0.90;;;18.10;59.40;;;;;;5049106;28;46418;-72
2022/11/02 01:18:33;;;;;;;1.10;0.80;;;18.10;59.40;;;;;;5048972;28;45315;-72
2022/11/02 01:21:00;;;;;;;3.05;1.08;;;18.10;59.40;;;;;;5049262;28;45372;-72
2022/11/02 01:23:27;;;;;;;1.80;1.10;;;18.10;59.30;;;;;;5049255;28;45202;-72
2022/11/02 01:25:54;;;;;;;2.03;0.90;;;18.10;59.40;;;;;;5048995;28;47323;-72
2022/11/02 01:28:22;;;;;;;1.10;0.82;;;18.10;59.40;;;;;;5049135;28;45247;-72
2022/11/02 01:30:50;;;;;;;1.75;0.90;;;18.10;60.00;;;;;;5049077;28;45242;-72
2022/11/02 01:33:16;;;;;;;1.20;0.80;;;18.10;59.40;;;;;;5049434;28;45428;-72
2022/11/02 01:35:43;;;;;;;2.25;0.98;;;18.10;59.30;;;;;;5048733;28;45516;-72
2022/11/02 01:38:10;;;;;;;1.80;0.85;;;18.10;59.40;;;;;;5048691;28;45202;-72
2022/11/02 01:40:38;;;;;;;1.52;1.02;;;18.10;59.40;;;;;;5048992;28;45310;-72
2022/11/02 01:43:23;;;;;;;1.50;1.00;;;18.10;59.30;;;;;;5049250;28;45311;-72
2022/11/02 01:45:51;;;;;;;2.75;0.80;;;18.10;59.30;;;;;;5048625;28;45538;-72
2022/11/02 01:48:19;;;;;;;1.15;1.05;;;18.10;59.30;;;;;;5048565;28;45188;-72
2022/11/02 01:50:45;;;;;;;2.30;1.08;;;18.10;59.30;;;;;;5048743;28;45202;-72
2022/11/02 01:53:13;;;;;;;1.30;1.20;;;18.10;59.30;;;;;;5048772;28;45404;-72
2022/11/02 01:55:39;;;;;;;1.55;0.80;;;18.10;59.30;;;;;;5048440;28;46722;-72
2022/11/02 01:58:08;;;;;;;2.13;0.90;;;18.10;59.30;;;;;;5047766;28;45401;-72
2022/11/02 02:00:37;;;;;;;1.67;0.85;;;18.10;59.30;;;;;;5048136;28;45307;-72
2022/11/02 02:03:07;;;;;;;0.80;0.77;;;18.10;59.30;;;;;;5048638;28;45324;-72
2022/11/02 02:05:34;;;;;;;1.05;0.95;;;18.10;59.30;;;;;;5047996;28;45288;-72
2022/11/02 02:08:01;;;;;;;1.27;0.88;;;18.10;59.30;;;;;;5048020;28;45381;-72
2022/11/02 02:10:28;;;;;;;1.10;0.93;;;18.10;59.30;;;;;;5048455;28;45323;-72
2022/11/02 02:12:55;;;;;;;0.88;0.85;;;18.10;59.30;;;;;;5048405;28;45455;-72
2022/11/02 02:15:22;;;;;;;3.47;1.02;;;18.10;59.30;;;;;;5048086;28;46416;-72
2022/11/02 02:17:53;;;;;;;1.00;0.80;;;18.10;59.30;;;;;;5048046;28;45244;-72
2022/11/02 02:20:27;;;;;;;1.48;0.90;;;18.10;59.30;;;;;;5048491;28;45323;-72
2022/11/02 02:23:20;;;;;;;1.60;0.82;;;18.10;59.30;;;;;;5048318;28;45250;-72
2022/11/02 02:26:02;;;;;;;0.98;0.70;;;18.10;59.30;;;;;;5047907;28;46368;-72
2022/11/02 02:28:34;;;;;;;2.05;0.70;;;18.10;59.30;;;;;;5047954;28;45286;-72
2022/11/02 02:31:03;;;;;;;1.88;0.75;;;18.10;59.30;;;;;;5048075;28;45338;-72
2022/11/02 02:33:30;;;;;;;1.10;0.90;;;18.10;59.30;;;;;;5028131;28;45432;-72
2022/11/02 02:36:00;;;;;;;1.83;0.80;;;18.00;59.30;;;;;;5027658;28;46394;-72
2022/11/02 02:38:29;;;;;;;1.58;1.10;;;18.00;59.30;;;;;;5027608;28;45373;-72
2022/11/02 02:40:58;;;;;;;0.82;0.70;;;18.00;60.00;;;;;;5027808;28;45191;-72
2022/11/02 02:43:26;;;;;;;1.95;0.60;;;18.00;59.50;;;;;;5027914;28;45336;-72
2022/11/02 02:45:55;;;;;;;2.10;0.68;;;18.00;59.50;;;;;;5027491;28;45418;-72
2022/11/02 02:48:23;;;;;;;0.70;0.70;;;18.00;59.50;;;;;;5027315;28;45404;-72
2022/11/02 02:50:51;;;;;;;2.67;0.75;;;18.00;59.40;;;;;;5027582;28;45310;-72
2022/11/02 02:53:21;;;;;;;1.58;0.80;;;18.00;59.50;;;;;;5027831;28;45172;-72
2022/11/02 02:55:51;;;;;;;1.02;0.73;;;18.00;59.50;;;;;;5027614;28;45293;-72
2022/11/02 02:58:21;;;;;;;0.77;0.70;;;18.00;59.40;;;;;;5027378;28;45222;-72
2022/11/02 03:00:48;;;;;;;1.30;0.77;;;18.00;59.40;;;;;;5027523;28;45313;-72
2022/11/02 03:03:18;;;;;;;2.50;1.15;;;18.00;59.50;;;;;;5027447;28;45330;-72
2022/11/02 03:05:56;;;;;;;1.92;0.82;;;18.00;59.50;;;;;;5042731;28;47309;-71
2022/11/02 03:08:23;;;;;;;0.93;0.70;;;18.00;59.40;;;;;;5046944;28;45143;-71
2022/11/02 03:10:52;;;;;;;1.75;0.80;;;17.90;59.40;;;;;;5046770;28;45304;-72
2022/11/02 03:13:30;;;;;;;0.70;0.70;;;17.90;59.50;;;;;;5046172;28;45367;-72
2022/11/02 03:15:59;;;;;;;0.60;0.60;;;17.90;59.50;;;;;;5046672;28;45571;-72
2022/11/02 03:18:32;;;;;;;0.77;0.70;;;17.90;59.50;;;;;;5047093;28;45286;-72
2022/11/02 03:21:03;;;;;;;1.63;0.50;;;18.00;59.50;;;;;;5047307;28;45461;-72
2022/11/02 03:23:32;;;;;;;1.10;0.70;;;18.00;59.50;;;;;;5047202;28;45257;-72
2022/11/02 03:26:07;;;;;;;0.57;0.57;;;17.90;59.40;;;;;;5046948;28;45385;-72
2022/11/02 03:28:46;;;;;;;1.27;0.80;;;18.00;59.40;;;;;;5046945;28;45265;-72
2022/11/02 03:31:16;;;;;;;1.70;0.73;;;18.00;59.40;;;;;;5047144;28;45198;-72
2022/11/02 03:33:47;;;;;;;1.00;0.57;;;18.00;60.00;;;;;;5047281;28;45411;-72
2022/11/02 03:36:16;;;;;;;0.88;0.60;;;18.00;59.40;;;;;;5046981;28;47501;-72
2022/11/02 03:38:44;;;;;;;0.95;0.85;;;18.00;59.40;;;;;;5046994;28;45245;-72
2022/11/02 03:41:11;;;;;;;1.13;0.60;;;18.00;60.00;;;;;;5047046;28;45234;-72
2022/11/02 03:43:38;;;;;;;1.10;0.77;;;18.00;59.40;;;;;;5047152;28;45408;-72
2022/11/02 03:46:06;;;;;;;0.80;0.70;;;17.90;59.30;;;;;;5046718;28;46793;-72
2022/11/02 03:48:36;;;;;;;1.73;0.55;;;17.90;59.30;;;;;;5046600;28;44762;-72
2022/11/02 03:51:06;;;;;;;0.85;0.75;;;17.90;59.30;;;;;;5047108;28;45359;-72
2022/11/02 03:53:48;;;;;;;2.28;0.90;;;17.90;59.40;;;;;;5047027;28;44764;-72
2022/11/02 03:56:19;;;;;;;1.10;0.70;;;17.90;59.40;;;;;;5046463;28;45294;-72
2022/11/02 03:58:46;;;;;;;1.50;0.70;;;17.90;59.40;;;;;;5046574;28;45328;-72
2022/11/02 04:01:12;;;;;;;0.90;0.60;;;17.90;59.40;;;;;;5046674;28;45294;-72
2022/11/02 04:03:42;;;;;;;1.00;0.75;;;17.90;59.40;;;;;;5046872;28;45404;-72
2022/11/02 04:06:11;;;;;;;1.13;0.70;;;17.90;59.40;;;;;;5046245;28;47609;-72
2022/11/02 04:08:40;;;;;;;1.58;0.93;;;17.90;59.40;;;;;;5046138;28;45214;-73
2022/11/02 04:16:35;;;;;;;0.50;0.50;;;17.90;59.40;;;;;;5043768;28;45227;-72
2022/11/02 04:27:13;;;;;;;1.05;0.77;;;17.80;59.40;;;;;;5049277;28;45242;-72
2022/11/02 04:29:39;;;;;;;1.65;0.88;;;17.80;59.40;;;;;;5049775;28;45209;-72
2022/11/02 04:32:06;;;;;;;2.05;0.90;;;17.80;59.40;;;;;;5049927;28;45206;-72
2022/11/02 04:34:32;;;;;;;1.25;1.00;;;17.80;59.40;;;;;;5050411;28;45349;-72
2022/11/02 04:37:00;;;;;;;1.38;0.70;;;17.80;59.40;;;;;;5049747;28;45332;-72
2022/11/02 04:39:46;;;;;;;1.02;0.68;;;17.80;59.40;;;;;;5049437;28;45343;-72
2022/11/02 04:42:13;;;;;;;1.38;0.70;;;17.80;59.40;;;;;;5049975;28;45243;-72
2022/11/02 04:44:40;;;;;;;0.70;0.52;;;17.80;59.30;;;;;;5049802;28;45405;-72
2022/11/02 04:47:07;;;;;;;1.30;1.08;;;17.80;59.40;;;;;;5049490;28;45197;-72
2022/11/02 04:49:34;;;;;;;1.63;0.60;;;17.80;59.80;;;;;;5049603;28;45328;-71
2022/11/02 04:52:02;;;;;;;0.95;0.70;;;17.80;60.00;;;;;;5048866;28;45274;-72
2022/11/02 04:54:29;;;;;;;1.40;0.80;;;17.80;59.40;;;;;;5049978;28;45182;-72
2022/11/02 04:56:56;;;;;;;1.95;0.68;;;17.80;59.40;;;;;;5049357;28;45295;-72
2022/11/02 04:59:23;;;;;;;1.55;0.80;;;17.80;60.00;;;;;;5049247;28;45261;-72
2022/11/02 05:01:50;;;;;;;2.60;0.80;;;17.80;59.40;;;;;;5049950;28;45438;-72
2022/11/02 05:04:16;;;;;;;1.52;0.60;;;17.80;59.40;;;;;;5049434;28;45384;-72
2022/11/02 05:06:43;;;;;;;1.23;0.80;;;17.80;59.40;;;;;;5049013;28;45209;-72
2022/11/02 05:09:12;;;;;;;1.20;0.60;;;17.80;59.40;;;;;;5049396;28;45212;-72
2022/11/02 05:11:38;;;;;;;2.15;0.68;;;17.80;59.40;;;;;;5049863;28;45328;-72
2022/11/02 05:14:05;;;;;;;1.08;0.70;;;17.80;59.40;;;;;;5049472;28;45317;-72
2022/11/02 05:16:32;;;;;;;2.42;0.85;;;17.80;59.40;;;;;;5049091;28;46490;-72
2022/11/02 05:18:59;;;;;;;0.73;0.73;;;17.80;59.40;;;;;;5049149;28;45242;-72
2022/11/02 05:21:26;;;;;;;0.55;0.50;;;17.70;59.40;;;;;;5049283;28;45269;-72
2022/11/02 05:23:53;;;;;;;0.55;0.55;;;17.80;59.40;;;;;;5049480;28;45471;-72
2022/11/02 05:26:21;;;;;;;1.15;0.60;;;17.70;59.40;;;;;;5048993;28;45375;-72
2022/11/02 05:28:50;;;;;;;0.77;0.70;;;17.70;59.40;;;;;;5048845;28;45305;-72
2022/11/02 05:31:16;;;;;;;1.45;0.70;;;17.70;59.40;;;;;;5049090;28;45182;-72
2022/11/02 05:33:43;;;;;;;0.93;0.65;;;17.70;59.40;;;;;;5049334;28;45253;-72
2022/11/02 05:36:11;;;;;;;0.63;0.60;;;17.70;60.00;;;;;;5047708;28;46374;-72
2022/11/02 05:38:38;;;;;;;1.75;0.63;;;17.70;59.40;;;;;;5048498;28;45318;-72
2022/11/02 05:41:05;;;;;;;0.60;0.60;;;17.70;60.00;;;;;;5048847;28;45180;-72
2022/11/02 05:43:33;;;;;;;0.65;0.63;;;17.70;59.40;;;;;;5049024;28;45404;-72
2022/11/02 05:46:01;;;;;;;0.73;0.60;;;17.70;59.50;;;;;;5048535;28;45410;-72
2022/11/02 05:48:28;;;;;;;1.30;0.60;;;17.70;59.40;;;;;;5048460;28;45293;-72
2022/11/02 05:50:56;;;;;;;1.42;0.77;;;17.70;59.40;;;;;;5048523;28;45213;-72
2022/11/02 05:53:22;;;;;;;2.35;0.80;;;17.70;59.40;;;;;;5048856;28;45139;-72
2022/11/02 05:55:50;;;;;;;0.93;0.55;;;17.70;59.50;;;;;;5048413;28;45373;-72
2022/11/02 05:58:17;;;;;;;0.98;0.60;;;17.60;59.40;;;;;;5048391;28;45304;-72
2022/11/02 06:00:45;;;;;;;0.75;0.55;;;17.70;59.40;;;;;;5048583;28;45281;-72
2022/11/02 06:03:12;;;;;;;0.88;0.60;;;17.70;59.40;;;;;;5048506;28;45411;-72
2022/11/02 06:05:39;;;;;;;0.77;0.57;;;17.60;59.40;;;;;;5048470;28;47689;-72
2022/11/02 06:08:06;;;;;;;2.78;0.80;;;17.70;60.00;;;;;;5047930;28;45389;-72
2022/11/02 06:10:33;;;;;;;1.50;0.90;;;17.60;59.40;;;;;;5048255;28;45297;-72
2022/11/02 06:13:00;;;;;;;2.30;0.80;;;17.60;59.40;;;;;;5048473;28;45229;-72
2022/11/02 06:15:27;;;;;;;1.27;0.82;;;17.60;59.40;;;;;;5047941;28;45212;-72
2022/11/02 06:17:55;;;;;;;1.05;0.60;;;17.60;60.10;;;;;;5048035;28;45262;-72
2022/11/02 06:20:22;;;;;;;2.38;0.65;;;17.60;59.40;;;;;;5047506;28;45323;-72
2022/11/02 06:22:49;;;;;;;1.42;0.65;;;17.60;59.40;;;;;;5048286;28;45237;-72
2022/11/02 06:25:16;;;;;;;0.70;0.60;;;17.70;59.40;;;;;;5048037;28;45422;-72
2022/11/02 06:27:53;;;;;;;1.05;0.75;;;17.60;59.40;;;;;;5047943;28;45199;-72
2022/11/02 06:30:20;;;;;;;0.68;0.68;;;17.60;59.40;;;;;;5047980;28;45321;-72
2022/11/02 06:32:48;;;;;;;1.08;0.50;;;17.60;59.40;;;;;;5048031;28;45471;-72
2022/11/02 06:35:16;;;;;;;0.63;0.57;;;17.60;59.40;;;;;;5047837;28;47174;-72
2022/11/02 06:37:43;;;;;;;1.63;0.60;;;17.60;59.50;;;;;;5047694;28;45145;-72
2022/11/02 06:40:11;;;;;;;2.15;0.60;;;17.60;59.40;;;;;;5048090;28;45304;-72
2022/11/02 06:42:38;;;;;;;1.55;1.00;;;17.60;59.40;;;;;;5048085;28;45555;-72
2022/11/02 06:45:06;;;;;;;3.33;1.20;;;17.60;59.40;;;;;;5047525;28;46733;-74
2022/11/02 06:47:33;;;;;;;2.35;1.13;;;17.60;59.40;;;;;;5047676;28;45262;-74
2022/11/02 06:49:59;;;;;;;1.25;0.90;;;17.60;59.40;;;;;;5046579;28;45182;-72
2022/11/02 06:52:29;;;;;;;1.13;1.02;;;17.60;59.40;;;;;;5047953;28;45290;-72
2022/11/02 06:54:56;;;;;;;1.13;0.98;;;17.60;59.40;;;;;;5047478;28;45274;-72
2022/11/02 06:57:23;;;;;;;2.83;1.20;;;17.60;59.40;;;;;;5047795;28;45209;-72
2022/11/02 06:59:50;;;;;;;1.40;0.90;;;17.70;59.40;;;;;;5047589;28;45292;-72
2022/11/02 07:02:20;;;;;;;1.30;1.10;;;17.70;59.40;;;;;;5047649;28;45317;-72
2022/11/02 07:04:48;;;;;;;1.15;1.05;;;17.70;59.30;;;;;;5047317;28;45527;-72
2022/11/02 07:07:15;;;;;;;1.13;0.95;;;17.70;59.20;;;;;;5047277;28;45284;-72
2022/11/02 07:09:43;;;;;;;1.27;0.95;;;17.70;59.30;;;;;;5046537;28;45282;-72
2022/11/02 07:12:10;;;;;;;2.60;1.13;;;17.70;59.20;;;;;;5047443;28;45392;-74
2022/11/02 07:14:37;;;;;;;2.42;1.00;;;17.70;59.20;;;;;;5047216;28;46476;-72
2022/11/02 07:17:03;;;;;;;1.70;1.20;;;17.70;59.30;;;;;;5047145;28;45279;-72
2022/11/02 07:19:30;;;;;;;3.40;1.05;;;17.70;59.20;;;;;;5047199;28;45339;-72
2022/11/02 07:21:57;;;;;;;4.30;1.58;;;17.70;59.20;;;;;;5047266;28;45385;-72
2022/11/02 07:24:24;;;;;;;3.28;1.25;;;17.70;59.20;;;;;;5045714;28;45342;-71
2022/11/02 07:26:53;;;;;;;2.90;1.13;;;17.70;59.20;;;;;;5039444;28;45514;-71
2022/11/02 07:29:19;;;;;;;1.90;1.50;;;17.70;59.10;;;;;;5046464;28;45312;-75
2022/11/02 07:31:46;;;;;;;1.80;1.20;;;17.70;59.10;;;;;;5045653;28;45472;-73
2022/11/02 07:34:13;;;;;;;3.65;1.33;;;17.80;59.10;;;;;;5046285;28;46465;-74
2022/11/02 07:36:40;;;;;;;4.25;1.73;;;17.70;59.10;;;;;;5044992;28;45337;-73
2022/11/02 07:39:07;;;;;;;3.00;1.80;;;17.70;59.00;;;;;;5046659;28;45260;-73
2022/11/02 07:41:34;;;;;;;5.45;2.35;;;17.80;59.00;;;;;;5046769;28;45316;-73
2022/11/02 07:44:03;;;;;;;3.38;2.00;;;17.80;59.00;;;;;;5051580;28;46576;-73
2022/11/02 07:46:29;;;;;;;3.17;2.05;;;17.80;58.90;;;;;;5046861;28;45311;-74
2022/11/02 07:48:56;;;;;;;5.25;2.22;;;17.80;58.90;;;;;;5046856;28;45279;-73
2022/11/02 07:51:23;;;;;;;5.60;2.13;;;17.80;58.90;;;;;;5046956;28;45324;-73
2022/11/02 07:53:50;;;;;;;4.65;2.40;;;17.80;59.50;;;;;;5045585;28;48023;-73
2022/11/02 07:56:17;;;;;;;3.35;2.30;;;17.80;58.90;;;;;;5046297;28;45324;-72
2022/11/02 07:58:44;;;;;;;3.63;2.00;;;17.80;58.80;;;;;;5046426;28;45356;-72
2022/11/02 08:01:12;;;;;;;2.63;2.15;;;17.80;58.80;;;;;;5046253;28;45341;-72
2022/11/02 08:03:39;;;;;;;5.20;2.30;;;17.80;58.80;;;;;;5046030;28;46424;-73
2022/11/02 08:06:06;;;;;;;4.45;2.05;;;17.80;59.30;;;;;;5046193;28;44790;-73
2022/11/02 08:08:33;;;;;;;3.97;2.30;;;17.80;58.70;;;;;;5046438;28;45277;-72
2022/11/02 08:11:04;;;;;;;3.08;2.17;;;17.80;58.90;;;;;;5046909;28;45308;-73
2022/11/02 08:13:31;;;;;;;3.25;2.20;;;17.90;59.40;;;;;;5045949;28;45261;-72
2022/11/02 08:15:57;;;;;;;6.07;2.30;;;17.90;58.70;;;;;;5043044;28;45317;-72
2022/11/02 08:18:26;;;;;;;4.55;2.20;;;17.90;58.70;;;;;;5046494;28;45375;-73
2022/11/02 08:20:55;;;;;;;4.18;2.15;;;17.90;59.20;;;;;;5048147;28;45410;-75
2022/11/02 08:23:21;;;;;;;7.88;2.28;;;17.90;58.80;;;;;;5045015;28;46671;-74
2022/11/02 08:25:49;;;;;;;8.15;2.22;;;18.00;58.70;;;;;;5047650;28;45409;-72
2022/11/02 08:28:17;;;;;;;4.82;1.92;;;18.00;58.50;;;;;;5046635;28;45333;-71
2022/11/02 08:30:44;;;;;;;4.78;2.15;;;18.10;58.50;;;;;;5044576;28;45397;-72
2022/11/02 08:33:14;;;;;;;4.50;2.28;;;18.10;58.30;;;;;;5045925;28;45275;-72
2022/11/02 08:35:43;;;;;;;5.80;2.10;;;18.10;58.40;;;;;;5045973;28;45219;-72
2022/11/02 08:38:10;;;;;;;3.45;2.15;;;18.20;58.40;;;;;;5048976;28;45443;-72
2022/11/02 08:40:37;;;;;;;5.50;2.13;;;18.20;58.30;;;;;;5046289;28;45396;-72
2022/11/02 08:43:05;;;;;;;4.07;2.08;;;18.30;58.30;;;;;;5051497;28;46460;-72
2022/11/02 08:45:32;;;;;;;4.43;1.92;;;18.20;58.30;;;;;;5044796;28;45376;-73
2022/11/02 08:47:59;;;;;;;3.78;2.20;;;18.20;58.30;;;;;;5048164;28;45364;-72
2022/11/02 08:50:26;;;;;;;6.82;2.45;;;18.30;58.60;;;;;;5049532;28;45438;-72
2022/11/02 08:52:54;;;;;;;6.68;2.22;;;18.30;58.50;;;;;;5047481;28;45365;-72
2022/11/02 08:55:21;;;;;;;10.13;2.70;;;18.30;58.50;;;;;;5046905;28;45360;-72
2022/11/02 08:57:49;;;;;;;7.50;2.75;;;18.30;58.40;;;;;;5048501;28;45463;-72
2022/11/02 09:00:16;;;;;;;6.60;2.20;;;18.30;58.40;;;;;;5046369;28;45431;-72
2022/11/02 09:02:43;;;;;;;7.82;2.30;;;18.30;58.40;;;;;;5045563;28;45481;-73
2022/11/02 09:05:10;;;;;;;8.30;2.35;;;18.30;58.40;;;;;;5042731;28;45618;-72
2022/11/02 09:07:37;;;;;;;5.93;1.98;;;18.30;58.40;;;;;;5049325;28;45499;-73
2022/11/02 09:10:07;;;;;;;6.43;2.80;;;18.30;58.90;;;;;;5045943;28;45388;-72
2022/11/02 09:12:34;;;;;;;5.32;2.13;;;18.30;58.30;;;;;;5050993;28;46261;-73
2022/11/02 09:15:00;;;;;;;4.63;2.33;;;18.30;58.40;;;;;;5048842;28;45292;-72
2022/11/02 09:17:28;;;;;;;5.50;2.05;;;18.30;58.30;;;;;;5049139;28;45403;-72
2022/11/02 09:19:55;;;;;;;4.75;2.03;;;18.30;58.40;;;;;;5049260;28;45488;-72
2022/11/02 09:22:22;;;;;;;5.38;1.98;;;18.30;58.30;;;;;;5048699;28;46351;-72
2022/11/02 09:24:49;;;;;;;7.57;2.47;;;18.30;58.30;;;;;;5050961;28;45316;-72
2022/11/02 09:27:17;;;;;;;5.63;2.50;;;18.30;58.40;;;;;;5049432;28;45297;-71
2022/11/02 09:29:44;;;;;;;7.35;2.10;;;18.40;58.20;;;;;;5049821;28;45328;-70
2022/11/02 09:32:11;;;;;;;6.28;2.10;;;18.50;57.90;;;;;;5048991;28;45241;-72
2022/11/02 09:34:38;;;;;;;5.47;2.30;;;18.50;57.80;;;;;;5049006;28;45330;-72
2022/11/02 09:37:05;;;;;;;9.85;2.08;;;18.60;58.00;;;;;;5046719;28;46295;-73
2022/11/02 09:39:32;;;;;;;6.57;2.13;;;18.60;57.50;;;;;;5053945;28;45717;-72
2022/11/02 09:42:04;;;;;;;5.15;2.20;;;18.80;57.40;;;;;;5049305;28;46376;-72
2022/11/02 09:44:37;;;;;;;5.05;1.75;;;18.80;57.00;;;;;;5053146;28;45414;-72
2022/11/02 09:47:08;;;;;;;4.82;1.90;;;18.90;57.10;;;;;;5048282;28;45495;-72
2022/11/02 09:49:35;;;;;;;3.13;1.80;;;18.80;56.70;;;;;;5047588;28;45555;-72
2022/11/02 09:52:01;;;;;;;3.80;1.88;;;18.80;56.80;;;;;;5048033;28;46411;-71
2022/11/02 09:54:30;;;;;;;4.38;1.70;;;18.80;56.90;;;;;;5046474;28;45756;-71
2022/11/02 09:56:58;;;;;;;4.25;1.50;;;18.80;57.10;;;;;;5049988;28;45546;-71
2022/11/02 09:59:26;;;;;;;4.88;1.48;;;18.80;56.90;;;;;;5044736;28;45470;-72
2022/11/02 10:01:57;;;;;;;4.93;1.38;;;18.80;57.00;;;;;;5045163;28;45428;-71
2022/11/02 10:04:43;;;;;;;5.22;1.67;;;18.80;56.80;;;;;;5046829;28;45315;-71
2022/11/02 10:07:13;;;;;;;3.78;1.40;;;18.80;56.80;;;;;;5046239;28;45412;-72
2022/11/02 10:09:43;;;;;;;2.28;1.40;;;18.80;57.10;;;;;;5048032;28;45416;-72
2022/11/02 10:12:12;;;;;;;4.68;1.45;;;18.80;57.30;;;;;;5048224;28;45351;-71
2022/11/02 10:14:43;;;;;;;3.42;1.58;;;18.80;57.50;;;;;;5048119;28;45274;-71
2022/11/02 10:17:12;;;;;;;5.63;2.97;;;18.80;58.10;;;;;;5047608;28;45188;-71
2022/11/02 10:19:40;;;;;;;5.32;1.55;;;18.80;57.50;;;;;;5045856;28;45305;-72
2022/11/02 10:22:09;;;;;;;4.70;1.70;;;18.80;57.60;;;;;;5047249;28;45416;-71
2022/11/02 10:24:39;;;;;;;3.55;1.52;;;18.80;57.60;;;;;;5047653;28;45263;-71
2022/11/02 10:27:12;;;;;;;4.72;1.65;;;18.80;57.60;;;;;;5047030;28;45443;-72
2022/11/02 10:29:42;;;;;;;4.95;1.83;;;18.80;57.60;;;;;;5047472;28;45308;-72
2022/11/02 10:32:12;;;;;;;4.53;1.60;;;18.90;57.70;;;;;;5047690;28;45590;-72
2022/11/02 10:34:39;;;;;;;6.28;1.50;;;18.90;57.70;;;;;;5047942;28;45340;-75
2022/11/02 10:37:18;;;;;;;5.40;1.40;;;18.90;57.70;;;;;;5047458;28;45292;-74
2022/11/02 10:39:49;;;;;;;8.13;2.08;;;18.90;57.20;;;;;;5038561;28;45171;-76
2022/11/02 10:42:29;;;;;;;4.20;1.77;;;18.90;57.10;;;;;;5047963;28;45288;-77
2022/11/02 10:45:04;;;;;;;5.13;1.42;;;19.00;57.50;;;;;;5047686;28;45287;-73
2022/11/02 10:47:33;;;;;;;4.93;1.52;;;19.00;57.30;;;;;;5047628;28;45225;-75
2022/11/02 10:50:21;;;;;;;7.38;1.30;;;19.10;57.20;;;;;;5047760;28;45378;-77
2022/11/02 10:52:48;;;;;;;6.72;1.60;;;19.20;56.90;;;;;;5047468;28;46400;-76
2022/11/02 10:55:21;;;;;;;7.63;1.67;;;19.20;57.50;;;;;;5047705;28;45189;-74
2022/11/02 10:57:48;;;;;;;5.15;1.55;;;19.30;56.50;;;;;;5048239;28;45193;-81
2022/11/02 11:00:29;;;;;;;3.17;1.25;;;19.50;57.40;;;;;;5048378;28;45392;-85
2022/11/02 11:03:11;;;;;;;33.30;25.83;;;19.50;56.90;;;;;;5047516;28;45459;-73
2022/11/02 11:05:56;;;;;;;15.15;7.82;;;19.60;56.20;;;;;;5047549;28;45369;-69
2022/11/02 11:08:31;;;;;;;6.88;3.80;;;19.70;55.70;;;;;;5047281;28;45305;-73
2022/11/02 11:11:10;;;;;;;7.38;5.40;;;19.70;55.80;;;;;;5047517;28;45482;-74
2022/11/02 11:13:37;;;;;;;5.75;4.80;;;19.80;55.40;;;;;;5046980;28;45271;-74
2022/11/02 11:16:05;;;;;;;7.47;4.28;;;19.90;55.00;;;;;;5047276;28;45254;-73
2022/11/02 11:18:33;;;;;;;8.50;3.95;;;20.00;55.20;;;;;;5066137;28;45501;-74
2022/11/02 11:21:00;;;;;;;7.22;4.53;;;20.10;55.30;;;;;;5067634;28;45475;-74
2022/11/02 11:23:27;;;;;;;5.45;3.55;;;20.10;55.20;;;;;;5064848;28;45228;-75
2022/11/02 11:25:56;;;;;;;6.80;3.38;;;20.20;55.10;;;;;;5067755;28;45184;-74
2022/11/02 11:28:25;;;;;;;9.00;3.33;;;20.20;55.10;;;;;;5052233;28;45384;-75
2022/11/02 11:31:06;;;;;;;7.60;3.65;;;20.30;55.00;;;;;;5047382;28;45284;-74
2022/11/02 11:33:41;;;;;;;5.65;3.10;;;20.30;55.50;;;;;;5054362;28;45750;-74
2022/11/02 11:36:09;;;;;;;5.22;3.00;;;20.30;54.60;;;;;;5039347;28;45539;-73
2022/11/02 11:38:36;;;;;;;5.75;2.63;;;20.40;54.70;;;;;;5047210;28;45237;-74
2022/11/02 11:41:03;;;;;;;5.05;2.35;;;20.50;54.80;;;;;;5047285;28;45175;-75
2022/11/02 11:43:33;;;;;;;5.88;2.40;;;20.50;54.30;;;;;;5046911;28;45269;-75
2022/11/02 11:46:01;;;;;;;6.05;2.22;;;20.60;54.60;;;;;;5046526;28;45317;-75
2022/11/02 11:48:32;;;;;;;5.38;2.63;;;20.70;54.50;;;;;;5051311;28;45462;-74
2022/11/02 11:51:01;;;;;;;6.15;2.80;;;20.80;53.50;;;;;;5067094;28;45492;-71
2022/11/02 11:53:28;;;;;;;8.15;3.65;;;20.80;53.30;;;;;;5066434;28;46563;-71
2022/11/02 11:55:57;;;;;;;8.07;4.07;;;20.80;52.30;;;;;;5066924;28;45204;-74
2022/11/02 11:58:24;;;;;;;7.45;3.10;;;20.90;52.50;;;;;;5067406;28;45425;-76
2022/11/02 12:01:05;;;;;;;6.32;3.50;;;21.00;52.50;;;;;;5067125;28;45436;-74
2022/11/02 12:03:32;;;;;;;94.80;66.05;;;21.00;51.70;;;;;;5060474;28;45248;-70
2022/11/02 12:06:04;;;;;;;10.95;5.93;;;21.10;51.80;;;;;;5046199;28;45423;-69
2022/11/02 12:08:42;;;;;;;8.20;3.20;;;21.10;50.50;;;;;;5045956;28;45478;-73
2022/11/02 12:11:30;;;;;;;8.55;3.40;;;21.10;50.10;;;;;;5055972;28;45400;-76
2022/11/02 12:14:04;;;;;;;17.27;9.30;;;21.10;50.30;;;;;;5066520;28;45766;-70
2022/11/02 12:16:38;;;;;;;13.55;5.88;;;21.10;51.60;;;;;;5066056;28;45342;-71
2022/11/02 12:19:12;;;;;;;8.43;4.10;;;21.20;50.50;;;;;;5067333;28;45198;-75
2022/11/02 12:21:47;;;;;;;9.70;3.42;;;21.20;50.50;;;;;;5066692;28;45336;-72
2022/11/02 12:24:55;;;;;;;7.85;2.72;;;21.20;50.70;;;;;;5066425;28;45300;-75
2022/11/02 12:27:28;;;;;;;5.63;2.28;;;21.30;50.80;;;;;;5015135;28;45429;-71
2022/11/02 12:30:19;;;;;;;8.77;3.03;;;21.30;50.60;;;;;;5039546;28;45452;-71
2022/11/02 12:33:00;;;;;;;5.60;2.38;;;21.30;50.50;;;;;;5036422;28;45603;-69
2022/11/02 12:35:50;;;;;;;8.00;2.50;;;21.40;50.40;;;;;;5045884;28;46346;-71
2022/11/02 12:38:30;;;;;;;9.02;2.40;;;21.40;50.00;;;;;;5057714;28;45420;-71
2022/11/02 12:40:59;;;;;;;5.65;2.20;;;21.40;50.00;;;;;;5046316;28;45324;-71
2022/11/02 12:43:38;;;;;;;6.93;2.45;;;21.40;49.90;;;;;;5046333;28;45345;-72
2022/11/02 12:46:09;;;;;;;6.35;2.50;;;21.40;50.10;;;;;;5046085;28;45371;-72
2022/11/02 12:48:41;;;;;;;8.82;2.95;;;21.40;50.30;;;;;;5054520;28;45522;-71
2022/11/02 12:51:10;;;;;;;9.30;3.08;;;21.40;49.60;;;;;;5060985;28;45304;-72
2022/11/02 12:53:47;;;;;;;6.15;2.40;;;21.40;49.70;;;;;;5049662;28;45515;-72
2022/11/02 12:56:18;;;;;;;5.80;1.98;;;21.40;50.20;;;;;;5052281;28;45515;-72
2022/11/02 12:58:44;;;;;;;5.35;1.80;;;21.40;49.80;;;;;;5063621;28;45198;-73
2022/11/02 13:01:14;;;;;;;6.50;1.88;;;21.30;49.80;;;;;;5061705;28;45365;-72
2022/11/02 13:03:46;;;;;;;4.45;1.60;;;21.20;49.60;;;;;;5048138;28;45388;-72
2022/11/02 13:06:15;;;;;;;4.60;1.88;;;21.10;49.90;;;;;;5050181;28;47431;-72
2022/11/02 13:08:45;;;;;;;8.85;2.00;;;21.00;50.00;;;;;;5051583;28;45493;-73
2022/11/02 13:11:14;;;;;;;8.35;1.73;;;21.00;49.90;;;;;;5067341;28;45270;-73